Dry Prong, Louisiana
Current Conditions -  °F | °C
As of 1:53 AM on Friday 21 Nov 2014 (Local Time) from KAEX Reporting Station
Overcast Overcast  
Wind Chill: 52°   Ceiling: 9500
Heat Index: 52°   Visibility: 10mi
Dew Point: 48°   Wind: 6mph
Humidity: 86%   Direction: 140°SE
Pressure: 30.18"   Gusts: NA
Location:  31.58°N, 92.53°W
Report Text: KAEX 210753Z 14005KT 10SM BKN095 OVC110 11/09 A3018 RMK AO2 SLP225 T01110089
Loading
Personal Weather Stations






























Interactive Weather Map New forecast layout! Learn more

10-Day Weather Forecast

Advertisements
Track Severe Weather on mobile